Time;durP1;ratioP1;P1;durP2;ratioP2;P2;SDS_P1;SDS_P2;PMS_P1;PMS_P2;Temp;Humidity;BMP_temperature;BMP_pressure;BME280_temperature;BME280_humidity;BME280_pressure;Samples;Min_cycle;Max_cycle;Signal;HPM_P1;HPM_P2
2022/02/13 00:00:59;;;;;;;5.38;4.88;;;4.10;99.90;;;;;;4905868;29;20298;-81
2022/02/13 00:03:27;;;;;;;6.63;3.63;;;3.20;99.90;;;;;;4919804;29;20198;-81
2022/02/13 00:05:53;;;;;;;4.93;4.53;;;3.50;99.90;;;;;;4916479;29;20574;-81
2022/02/13 00:08:19;;;;;;;3.77;3.57;;;3.00;99.90;;;;;;4921292;29;20192;-79
2022/02/13 00:10:48;;;;;;;5.68;4.80;;;3.30;99.90;;;;;;4911173;29;20536;-79
2022/02/13 00:13:13;;;;;;;5.15;4.20;;;3.60;99.90;;;;;;4906978;29;20188;-80
2022/02/13 00:15:39;;;;;;;4.50;4.13;;;2.30;99.90;;;;;;4909863;29;20709;-81
2022/02/13 00:18:05;;;;;;;8.63;4.20;;;3.20;99.90;;;;;;4922371;29;20244;-82
2022/02/13 00:20:31;;;;;;;4.73;3.57;;;3.20;99.90;;;;;;4922447;29;20282;-80
2022/02/13 00:22:56;;;;;;;5.03;4.43;;;3.00;99.90;;;;;;4924977;29;20439;-81
2022/02/13 00:25:25;;;;;;;4.00;3.73;;;3.20;99.90;;;;;;4910341;29;20204;-80
2022/02/13 00:27:51;;;;;;;4.68;4.25;;;3.10;99.90;;;;;;4903071;29;20195;-81
2022/02/13 00:30:26;;;;;;;4.90;4.40;;;3.30;99.90;;;;;;4894910;29;20206;-81
2022/02/13 00:32:57;;;;;;;4.15;3.92;;;3.30;99.90;;;;;;4922742;29;20557;-81
2022/02/13 00:35:23;;;;;;;4.05;3.83;;;3.10;99.90;;;;;;4898843;29;20227;-80
2022/02/13 00:37:49;;;;;;;5.70;5.20;;;3.00;99.90;;;;;;4904490;29;20222;-80
2022/02/13 00:40:18;;;;;;;4.57;4.17;;;3.30;99.90;;;;;;4900965;29;20230;-81
2022/02/13 00:42:43;;;;;;;3.38;2.97;;;3.30;99.90;;;;;;4911542;29;20191;-81
2022/02/13 00:45:11;;;;;;;6.40;4.80;;;3.30;99.90;;;;;;4892305;29;20192;-81
2022/02/13 00:47:37;;;;;;;4.65;4.32;;;3.30;99.90;;;;;;4906744;29;20188;-79
2022/02/13 00:50:03;;;;;;;4.83;4.13;;;3.20;99.90;;;;;;4916326;29;20199;-80
2022/02/13 00:52:30;;;;;;;5.47;3.95;;;3.50;99.90;;;;;;4907487;29;20547;-80
2022/02/13 00:54:59;;;;;;;4.82;4.53;;;3.30;99.90;;;;;;4915903;29;20279;-81
2022/02/13 00:57:24;;;;;;;5.45;4.50;;;3.20;99.90;;;;;;4901217;29;20258;-80
2022/02/13 00:59:50;;;;;;;4.40;4.07;;;2.30;99.90;;;;;;4918361;29;20203;-80
2022/02/13 01:02:15;;;;;;;6.20;4.73;;;3.20;99.90;;;;;;4901297;29;20183;-80
2022/02/13 01:04:41;;;;;;;4.07;3.77;;;3.50;99.90;;;;;;4919073;29;20279;-80
2022/02/13 01:07:06;;;;;;;11.60;3.83;;;3.30;99.90;;;;;;4918039;29;20191;-80
2022/02/13 01:09:32;;;;;;;5.17;4.77;;;3.10;99.90;;;;;;4919280;29;20549;-80
2022/02/13 01:11:58;;;;;;;4.70;4.00;;;3.30;99.90;;;;;;4921421;29;20207;-79
2022/02/13 01:14:23;;;;;;;4.13;3.90;;;3.30;99.90;;;;;;4917950;29;20638;-80
2022/02/13 01:16:49;;;;;;;4.90;4.37;;;3.20;99.90;;;;;;4901777;29;20323;-81
2022/02/13 01:19:15;;;;;;;4.53;4.30;;;1.90;99.90;;;;;;4910831;29;20619;-80
2022/02/13 01:21:40;;;;;;;6.17;4.57;;;3.20;99.90;;;;;;4919263;29;20395;-80
2022/02/13 01:24:06;;;;;;;5.07;4.10;;;3.00;99.90;;;;;;4917003;29;20204;-80
2022/02/13 01:26:32;;;;;;;8.17;4.67;;;4.10;99.90;;;;;;4923527;29;20179;-80
2022/02/13 01:28:57;;;;;;;4.93;4.60;;;3.10;99.90;;;;;;4913705;29;20498;-80
2022/02/13 01:31:23;;;;;;;5.00;4.70;;;3.00;99.90;;;;;;4919237;29;20179;-80
2022/02/13 01:33:49;;;;;;;5.50;5.10;;;2.90;99.90;;;;;;4917223;29;20188;-80
2022/02/13 01:36:14;;;;;;;5.93;5.30;;;2.60;99.90;;;;;;4905798;29;20673;-81
2022/02/13 01:41:10;;;;;;;4.82;4.15;;;3.00;99.90;;;;;;4948071;29;20856;-83
2022/02/13 01:43:35;;;;;;;4.17;3.80;;;7.80;99.90;;;;;;4918678;29;20258;-86
2022/02/13 01:46:01;;;;;;;9.60;5.00;;;;;;;;;;4932308;29;20274;-84
2022/02/13 01:48:29;;;;;;;5.47;4.75;;;2.90;99.90;;;;;;4914627;29;20191;-83
2022/02/13 01:50:55;;;;;;;6.25;5.60;;;3.90;99.90;;;;;;4920204;29;20202;-84
2022/02/13 01:53:21;;;;;;;4.80;4.40;;;6.10;99.90;;;;;;4931875;29;20569;-84
2022/02/13 01:55:48;;;;;;;6.03;4.05;;;0.70;99.90;;;;;;4921569;29;20482;-84
2022/02/13 01:58:14;;;;;;;7.63;4.78;;;3.80;99.90;;;;;;4918979;29;20334;-84
2022/02/13 02:00:40;;;;;;;4.80;4.50;;;1.70;99.90;;;;;;4920521;29;20700;-85
2022/02/13 02:03:06;;;;;;;13.10;5.70;;;;;;;;;;4944826;29;20186;-85
2022/02/13 02:05:35;;;;;;;4.97;4.68;;;2.90;99.90;;;;;;4919082;29;20955;-86
2022/02/13 02:08:02;;;;;;;5.45;4.53;;;3.50;99.90;;;;;;4921048;29;20286;-86
2022/02/13 02:10:30;;;;;;;5.45;4.75;;;1.00;99.90;;;;;;4924591;29;20198;-85
2022/02/13 02:12:56;;;;;;;5.13;4.65;;;2.90;99.90;;;;;;4931447;29;20190;-85
2022/02/13 02:15:22;;;;;;;4.33;3.93;;;5.50;99.90;;;;;;4937011;29;20214;-85
2022/02/13 02:17:48;;;;;;;6.10;4.90;;;;;;;;;;4935230;29;20430;-85
2022/02/13 02:20:16;;;;;;;6.18;5.60;;;2.80;99.90;;;;;;4944743;29;20194;-85
2022/02/13 02:23:03;;;;;;;7.85;5.07;;;2.80;99.90;;;;;;4934790;29;20214;-86
2022/02/13 02:25:29;;;;;;;5.32;4.93;;;2.80;99.90;;;;;;4933762;29;20559;-85
2022/02/13 02:27:54;;;;;;;5.27;4.67;;;2.80;99.90;;;;;;4934358;29;20183;-85
2022/02/13 02:30:20;;;;;;;7.83;5.27;;;;;;;;;;4942502;29;20207;-85
2022/02/13 02:32:46;;;;;;;6.38;4.47;;;2.80;99.90;;;;;;4935523;29;20187;-85
2022/02/13 02:35:12;;;;;;;4.90;4.40;;;0.10;99.90;;;;;;4923308;29;20335;-85
2022/02/13 02:37:38;;;;;;;4.20;3.90;;;1.60;99.90;;;;;;4942882;29;20195;-86
2022/02/13 02:40:04;;;;;;;4.00;3.90;;;3.70;99.90;;;;;;4942480;29;20553;-86
2022/02/13 02:42:30;;;;;;;4.80;4.60;;;3.10;99.90;;;;;;4935399;29;20788;-85
2022/02/13 02:44:56;;;;;;;5.03;4.47;;;5.60;99.90;;;;;;4934860;29;20426;-85
2022/02/13 02:47:22;;;;;;;5.40;4.90;;;6.60;99.90;;;;;;4934692;29;20194;-86
2022/02/13 02:49:48;;;;;;;4.87;4.47;;;;;;;;;;4930740;29;20816;-85
2022/02/13 02:52:13;;;;;;;4.18;3.83;;;2.70;99.90;;;;;;4944215;29;20204;-85
2022/02/13 02:54:39;;;;;;;4.43;3.93;;;6.50;99.90;;;;;;4924831;29;20278;-85
2022/02/13 02:57:05;;;;;;;4.60;4.30;;;;;;;;;;4946265;29;20418;-85
2022/02/13 02:59:31;;;;;;;5.43;4.27;;;2.70;99.90;;;;;;4945744;29;20438;-85
2022/02/13 03:01:57;;;;;;;4.67;4.27;;;2.80;99.90;;;;;;4933651;29;20443;-85
2022/02/13 03:04:23;;;;;;;5.07;4.67;;;3.00;99.90;;;;;;4936212;29;20199;-85
2022/02/13 03:06:48;;;;;;;5.07;4.70;;;2.80;99.90;;;;;;4947616;29;20206;-85
2022/02/13 03:09:14;;;;;;;6.27;4.47;;;2.50;99.90;;;;;;4938879;29;20195;-86
2022/02/13 03:11:40;;;;;;;5.23;4.90;;;2.80;99.90;;;;;;4936990;29;20243;-85
2022/02/13 03:14:05;;;;;;;7.23;4.60;;;2.70;99.90;;;;;;4945418;29;20314;-84
2022/02/13 03:16:31;;;;;;;4.10;3.80;;;2.60;99.90;;;;;;4942517;29;20758;-84
2022/02/13 03:18:57;;;;;;;5.63;4.97;;;2.60;99.90;;;;;;4934069;29;20438;-86
2022/02/13 03:21:25;;;;;;;5.30;4.30;;;2.60;99.90;;;;;;4934763;29;20190;-83
2022/02/13 03:23:50;;;;;;;4.72;4.43;;;2.50;99.90;;;;;;4945265;29;20676;-85
2022/02/13 03:26:16;;;;;;;5.30;4.90;;;4.00;99.90;;;;;;4944500;29;20261;-85
2022/02/13 03:28:42;;;;;;;4.60;4.20;;;2.30;99.90;;;;;;4938124;29;20280;-84
2022/02/13 03:31:07;;;;;;;5.23;3.93;;;2.40;99.90;;;;;;4943475;29;20183;-84
2022/02/13 03:33:33;;;;;;;3.60;2.93;;;2.50;99.90;;;;;;4932455;29;20190;-84
2022/02/13 03:35:58;;;;;;;3.17;3.07;;;3.20;99.90;;;;;;4915049;29;20219;-84
2022/02/13 03:38:24;;;;;;;5.83;4.30;;;2.30;99.90;;;;;;4933250;29;20191;-84
2022/02/13 03:40:51;;;;;;;3.60;3.30;;;2.60;99.90;;;;;;4914146;29;20790;-85
2022/02/13 03:43:17;;;;;;;6.18;5.10;;;2.60;99.90;;;;;;4924776;29;20202;-84
2022/02/13 03:45:42;;;;;;;4.33;3.90;;;2.60;99.90;;;;;;4948858;29;20207;-85
2022/02/13 03:48:08;;;;;;;6.90;4.10;;;2.40;99.90;;;;;;4940020;29;20198;-85
2022/02/13 03:50:34;;;;;;;3.50;3.30;;;2.50;99.90;;;;;;4932522;29;20194;-85
2022/02/13 03:53:02;;;;;;;5.60;4.20;;;5.10;99.90;;;;;;4934823;29;20623;-86
2022/02/13 03:55:32;;;;;;;3.60;3.50;;;2.60;99.90;;;;;;4948077;29;20270;-84
2022/02/13 03:57:59;;;;;;;8.07;4.05;;;2.60;99.90;;;;;;4942867;29;20615;-83
2022/02/13 04:00:25;;;;;;;4.70;4.35;;;2.50;99.90;;;;;;4949452;29;20195;-84
2022/02/13 04:02:55;;;;;;;2.60;2.50;;;;;;;;;;4946542;29;20198;-84
2022/02/13 04:05:25;;;;;;;4.45;3.42;;;2.50;99.90;;;;;;4948184;29;20194;-84
2022/02/13 04:07:51;;;;;;;3.88;3.55;;;;;;;;;;4953643;29;20175;-84
2022/02/13 04:10:17;;;;;;;3.80;3.60;;;2.60;99.90;;;;;;4941595;29;20199;-84
2022/02/13 04:12:43;;;;;;;4.57;4.30;;;2.60;99.90;;;;;;4951543;29;20194;-84
2022/02/13 04:15:09;;;;;;;3.50;3.27;;;3.40;99.90;;;;;;4927117;29;20195;-87
2022/02/13 04:17:35;;;;;;;4.20;4.00;;;2.50;99.90;;;;;;4941463;29;20202;-84
2022/02/13 04:20:01;;;;;;;5.23;4.40;;;2.50;99.90;;;;;;4928866;29;20194;-86
2022/02/13 04:22:26;;;;;;;6.23;4.10;;;2.50;99.90;;;;;;4946533;29;20194;-83
2022/02/13 04:24:52;;;;;;;4.40;4.00;;;2.60;99.90;;;;;;4940804;29;20210;-84
2022/02/13 04:27:18;;;;;;;3.90;3.70;;;2.40;99.90;;;;;;4929703;29;20838;-83
2022/02/13 04:29:44;;;;;;;5.90;3.33;;;;;;;;;;4942225;29;20218;-84
2022/02/13 04:32:09;;;;;;;3.95;3.70;;;2.50;99.90;;;;;;4919053;29;20652;-84
2022/02/13 04:34:35;;;;;;;4.57;4.17;;;2.30;99.90;;;;;;4924466;29;20238;-84
2022/02/13 04:37:01;;;;;;;3.67;3.50;;;4.60;99.90;;;;;;4927507;29;20211;-84
2022/02/13 04:39:27;;;;;;;3.30;3.10;;;2.10;99.90;;;;;;4922535;29;20225;-84
2022/02/13 04:41:52;;;;;;;3.17;2.97;;;2.40;99.90;;;;;;4941669;29;20801;-84
2022/02/13 04:44:18;;;;;;;5.63;3.10;;;2.30;99.90;;;;;;4940278;29;20195;-85
2022/02/13 04:46:44;;;;;;;2.80;2.70;;;2.40;99.90;;;;;;4928045;29;20183;-84
2022/02/13 04:49:09;;;;;;;5.53;4.30;;;2.30;99.90;;;;;;4942661;29;20447;-86
2022/02/13 04:51:35;;;;;;;4.80;4.30;;;;;;;;;;4924758;29;20533;-86
2022/02/13 04:54:04;;;;;;;3.37;3.20;;;;;;;;;;4927312;29;20202;-85
2022/02/13 04:56:29;;;;;;;4.22;4.03;;;2.50;99.90;;;;;;4924558;29;20478;-85
2022/02/13 04:58:55;;;;;;;8.93;3.80;;;2.50;99.90;;;;;;4940568;29;20338;-85
2022/02/13 05:01:23;;;;;;;3.60;3.27;;;2.30;99.90;;;;;;4927378;29;20179;-85
2022/02/13 05:03:49;;;;;;;4.32;4.03;;;2.10;99.90;;;;;;4939290;29;20940;-85
2022/02/13 05:06:15;;;;;;;5.17;4.53;;;2.50;99.90;;;;;;4932857;29;20191;-84
2022/02/13 05:08:41;;;;;;;5.03;4.53;;;2.70;99.90;;;;;;4940506;29;20191;-84
2022/02/13 05:11:06;;;;;;;6.23;2.77;;;2.60;99.90;;;;;;4941198;29;20860;-84
2022/02/13 05:13:32;;;;;;;7.33;4.30;;;3.50;99.90;;;;;;4927759;29;20191;-83
2022/02/13 05:15:58;;;;;;;3.70;3.60;;;2.40;99.90;;;;;;4932869;29;20786;-86
2022/02/13 05:18:24;;;;;;;5.53;5.13;;;;;;;;;;4931807;29;20660;-84
2022/02/13 05:20:49;;;;;;;2.43;2.33;;;2.50;99.90;;;;;;4924876;29;20269;-85
2022/02/13 05:23:20;;;;;;;3.83;3.50;;;2.50;99.90;;;;;;4932935;29;20493;-87
2022/02/13 05:25:46;;;;;;;9.20;4.05;;;2.50;99.90;;;;;;4918116;29;20234;-85
2022/02/13 05:28:12;;;;;;;3.43;3.17;;;;;;;;;;4948973;29;20215;-84
2022/02/13 05:30:38;;;;;;;6.15;4.20;;;3.20;99.90;;;;;;4930263;29;20322;-85
2022/02/13 05:33:04;;;;;;;4.10;3.80;;;;;;;;;;4928726;29;20704;-85
2022/02/13 05:35:30;;;;;;;2.73;2.50;;;;;;;;;;4930509;29;20653;-85
2022/02/13 05:37:55;;;;;;;5.03;2.70;;;2.80;99.90;;;;;;4941637;29;20429;-85
2022/02/13 05:40:21;;;;;;;3.73;3.53;;;2.70;99.90;;;;;;4930349;29;20223;-84
2022/02/13 05:42:47;;;;;;;3.87;3.57;;;;;;;;;;4933752;29;20549;-84
2022/02/13 05:45:13;;;;;;;3.45;3.35;;;2.80;99.90;;;;;;4944064;29;20285;-85
2022/02/13 05:47:38;;;;;;;5.67;4.33;;;2.70;99.90;;;;;;4928386;29;20278;-85
2022/02/13 05:50:04;;;;;;;4.10;3.80;;;2.60;99.90;;;;;;4929582;29;20195;-85
2022/02/13 05:52:30;;;;;;;3.63;3.47;;;2.80;99.90;;;;;;4942409;29;20261;-85
2022/02/13 05:54:56;;;;;;;2.73;2.63;;;2.60;99.90;;;;;;4924640;29;20608;-85
2022/02/13 05:57:21;;;;;;;4.53;4.30;;;2.60;99.90;;;;;;4939840;29;20289;-85
2022/02/13 05:59:47;;;;;;;3.00;2.80;;;2.60;99.90;;;;;;4927648;29;20205;-85
2022/02/13 06:02:13;;;;;;;4.20;3.93;;;2.60;99.90;;;;;;4928645;29;20242;-85
2022/02/13 06:04:38;;;;;;;3.30;3.07;;;2.60;99.90;;;;;;4926741;29;20289;-84
2022/02/13 06:07:07;;;;;;;5.20;4.17;;;2.60;99.90;;;;;;4931066;29;20321;-85
2022/02/13 06:09:32;;;;;;;1.80;1.70;;;2.50;99.90;;;;;;4938757;29;20438;-85
2022/02/13 06:11:58;;;;;;;2.77;2.70;;;2.60;99.90;;;;;;4912687;29;20187;-86
2022/02/13 06:14:24;;;;;;;4.83;4.30;;;;;;;;;;4928724;29;20458;-85
2022/02/13 06:16:50;;;;;;;3.67;3.58;;;2.70;99.90;;;;;;4931356;29;20214;-85
2022/02/13 06:19:17;;;;;;;10.03;4.00;;;2.60;99.90;;;;;;4917305;29;20186;-85
2022/02/13 06:21:43;;;;;;;4.72;4.30;;;2.40;99.90;;;;;;4927841;29;20191;-85
2022/02/13 06:24:08;;;;;;;3.37;3.27;;;2.50;99.90;;;;;;4911264;29;20616;-85
2022/02/13 06:26:35;;;;;;;4.17;3.93;;;2.20;99.90;;;;;;4912276;29;20238;-84
2022/02/13 06:29:02;;;;;;;4.28;3.92;;;2.60;99.90;;;;;;4945996;29;20264;-85
2022/02/13 06:31:28;;;;;;;6.30;4.90;;;2.70;99.90;;;;;;4922310;29;20202;-85
2022/02/13 06:33:53;;;;;;;4.97;4.47;;;2.30;99.90;;;;;;4926057;29;20198;-84
2022/02/13 06:36:19;;;;;;;5.70;4.50;;;2.80;99.90;;;;;;4931002;29;20336;-85
2022/02/13 06:38:45;;;;;;;4.07;3.80;;;2.30;99.90;;;;;;4927459;29;20218;-84
2022/02/13 06:41:10;;;;;;;5.33;5.03;;;2.70;99.90;;;;;;4924708;29;20186;-84
2022/02/13 06:43:36;;;;;;;6.43;4.10;;;2.30;99.90;;;;;;4945392;29;20191;-84
2022/02/13 06:46:02;;;;;;;3.40;3.20;;;2.30;99.90;;;;;;4925209;29;20189;-84
2022/02/13 06:48:29;;;;;;;6.70;4.13;;;2.20;99.90;;;;;;4936569;29;20195;-85
2022/02/13 06:50:55;;;;;;;4.75;4.35;;;2.50;99.90;;;;;;4922453;29;20516;-85
2022/02/13 06:53:22;;;;;;;4.43;4.13;;;2.60;99.90;;;;;;4948303;29;20544;-85
2022/02/13 06:55:48;;;;;;;3.78;3.53;;;2.40;99.90;;;;;;4929597;29;20596;-84
2022/02/13 06:58:14;;;;;;;2.67;2.58;;;2.50;99.90;;;;;;4934021;29;20194;-85
2022/02/13 07:00:40;;;;;;;4.90;4.60;;;3.40;99.90;;;;;;4948657;29;20202;-84
2022/02/13 07:03:07;;;;;;;4.35;4.05;;;2.50;99.90;;;;;;4941942;29;20191;-85
2022/02/13 07:05:33;;;;;;;4.28;3.60;;;2.80;99.90;;;;;;4948024;29;20200;-85
2022/02/13 07:07:59;;;;;;;1.73;1.73;;;;;;;;;;4934060;29;20269;-85
2022/02/13 07:10:28;;;;;;;4.90;4.65;;;2.60;99.90;;;;;;4933038;29;20212;-88
2022/02/13 07:13:03;;;;;;;4.07;3.78;;;2.50;99.90;;;;;;4946279;29;20198;-87
2022/02/13 07:16:03;;;;;;;4.47;4.00;;;3.00;99.90;;;;;;4915444;29;20214;-86
2022/02/13 07:18:35;;;;;;;2.88;2.67;;;2.60;99.90;;;;;;4956946;29;20862;-89
2022/02/13 07:21:02;;;;;;;2.97;2.78;;;2.60;99.90;;;;;;4948847;29;20183;-87
2022/02/13 07:23:28;;;;;;;6.23;4.37;;;;;;;;;;4249001;29;10000605;-87
2022/02/13 07:25:54;;;;;;;3.10;2.88;;;2.70;99.90;;;;;;4927994;29;20739;-88
2022/02/13 07:31:04;;;;;;;4.28;3.92;;;2.80;99.90;;;;;;4949558;28;20253;-90
2022/02/13 07:33:30;;;;;;;3.87;3.73;;;;;;;;;;4930832;29;20191;-87
2022/02/13 07:35:55;;;;;;;5.15;4.38;;;3.00;99.90;;;;;;4949200;28;20218;-88
2022/02/13 07:40:56;;;;;;;4.60;4.30;;;3.10;99.90;;;;;;4942174;28;20222;-88
2022/02/13 07:43:22;;;;;;;3.10;3.00;;;;;;;;;;4931037;29;20222;-90
2022/02/13 07:45:48;;;;;;;4.13;3.73;;;;;;;;;;4935865;28;20199;-90
2022/02/13 07:48:14;;;;;;;4.70;4.40;;;3.20;99.90;;;;;;4954931;28;20458;-90
2022/02/13 07:50:40;;;;;;;3.63;3.53;;;;;;;;;;4936181;28;20462;-88
2022/02/13 07:53:06;;;;;;;6.07;5.57;;;3.20;99.90;;;;;;4924813;29;21224;-90
2022/02/13 07:58:32;;;;;;;5.93;4.10;;;3.40;99.90;;;;;;4921708;28;20191;-89
2022/02/13 08:00:58;;;;;;;5.18;4.68;;;3.50;99.90;;;;;;4944180;23;20394;-81
2022/02/13 08:03:24;;;;;;;3.78;3.47;;;4.20;99.90;;;;;;4927922;29;20251;-81
2022/02/13 08:05:50;;;;;;;4.47;4.07;;;3.60;99.90;;;;;;4926897;29;20286;-81
2022/02/13 08:08:16;;;;;;;5.23;4.13;;;5.00;99.90;;;;;;4910057;29;20183;-80
2022/02/13 08:10:41;;;;;;;4.33;4.00;;;3.80;99.90;;;;;;4909903;29;20979;-80
2022/02/13 08:13:07;;;;;;;5.03;3.80;;;3.70;99.90;;;;;;4927993;29;20184;-80
2022/02/13 08:15:33;;;;;;;4.43;4.13;;;4.20;99.90;;;;;;4924306;29;20187;-81
2022/02/13 08:18:08;;;;;;;5.10;4.40;;;4.20;99.90;;;;;;4908817;29;20180;-80
2022/02/13 08:20:34;;;;;;;4.40;4.20;;;4.40;99.90;;;;;;4909546;29;20188;-80
2022/02/13 08:22:59;;;;;;;4.70;4.40;;;4.50;99.90;;;;;;4913463;29;20598;-80
2022/02/13 08:25:28;;;;;;;3.70;3.40;;;5.10;99.90;;;;;;4928338;29;20267;-80
2022/02/13 08:27:53;;;;;;;6.60;4.35;;;6.00;99.90;;;;;;4912347;29;20180;-81
2022/02/13 08:30:19;;;;;;;4.43;4.10;;;4.90;99.90;;;;;;4913031;29;20196;-81
2022/02/13 08:32:46;;;;;;;5.83;4.73;;;4.90;99.90;;;;;;4906556;29;20199;-78
2022/02/13 08:35:11;;;;;;;5.13;3.88;;;4.80;99.90;;;;;;4903295;29;20613;-80
2022/02/13 08:37:37;;;;;;;3.70;3.40;;;4.90;99.90;;;;;;4907491;29;20670;-81
2022/02/13 08:40:03;;;;;;;4.13;3.90;;;5.00;99.90;;;;;;4913381;29;20223;-81
2022/02/13 08:42:29;;;;;;;7.55;4.55;;;5.50;99.90;;;;;;4897641;29;20569;-81
2022/02/13 08:44:54;;;;;;;3.30;3.20;;;5.30;99.90;;;;;;4911789;29;20184;-81
2022/02/13 08:47:20;;;;;;;4.73;4.20;;;5.00;99.90;;;;;;4922250;29;20192;-82
2022/02/13 08:49:47;;;;;;;5.20;4.43;;;5.60;99.90;;;;;;4930359;29;20243;-80
2022/02/13 08:52:13;;;;;;;4.78;4.47;;;5.60;99.90;;;;;;4899191;29;20656;-80
2022/02/13 08:54:38;;;;;;;3.03;2.83;;;5.50;99.90;;;;;;4910938;29;20231;-81
2022/02/13 08:57:07;;;;;;;4.00;3.73;;;5.60;99.90;;;;;;4919658;29;20227;-80
2022/02/13 08:59:33;;;;;;;4.35;3.95;;;5.70;99.90;;;;;;4911610;29;20191;-81
2022/02/13 09:01:58;;;;;;;4.50;4.10;;;5.70;99.90;;;;;;4908630;29;20224;-81
2022/02/13 09:04:24;;;;;;;4.27;3.87;;;5.80;99.90;;;;;;4929161;29;20194;-81
2022/02/13 09:06:50;;;;;;;3.50;3.40;;;5.80;99.90;;;;;;4900988;29;20198;-82
2022/02/13 09:09:16;;;;;;;3.90;3.67;;;6.00;99.90;;;;;;4911300;29;20547;-81
2022/02/13 09:11:45;;;;;;;4.17;3.97;;;6.00;99.90;;;;;;4931270;29;20207;-84
2022/02/13 09:14:10;;;;;;;4.65;3.53;;;6.20;99.90;;;;;;4893748;29;20450;-82
2022/02/13 09:16:36;;;;;;;3.00;2.80;;;6.30;99.90;;;;;;4926766;29;20811;-81
2022/02/13 09:19:03;;;;;;;3.72;3.58;;;6.50;99.90;;;;;;4928985;29;20163;-81
2022/02/13 09:21:28;;;;;;;3.63;3.30;;;7.20;99.90;;;;;;4914977;29;20212;-82
2022/02/13 09:23:55;;;;;;;3.30;3.10;;;7.60;94.30;;;;;;4929496;29;20248;-81
2022/02/13 09:26:20;;;;;;;4.47;4.23;;;8.50;88.70;;;;;;4898263;29;20199;-82
2022/02/13 09:28:46;;;;;;;2.97;2.77;;;9.50;78.20;;;;;;4928902;29;20827;-82
2022/02/13 09:31:12;;;;;;;4.63;4.33;;;9.50;68.60;;;;;;4895073;29;20203;-82
2022/02/13 09:33:37;;;;;;;3.10;3.10;;;10.50;62.90;;;;;;4912191;29;20181;-82
2022/02/13 09:36:03;;;;;;;4.10;4.00;;;10.10;58.10;;;;;;4911199;29;20597;-81
2022/02/13 09:38:29;;;;;;;3.90;3.57;;;10.10;58.00;;;;;;4928988;29;20230;-82
2022/02/13 09:40:55;;;;;;;4.37;4.17;;;9.40;58.00;;;;;;4908653;29;20452;-82
2022/02/13 09:43:21;;;;;;;4.27;3.93;;;10.00;57.50;;;;;;4910432;29;20413;-81
2022/02/13 09:45:52;;;;;;;3.67;3.57;;;10.70;55.00;;;;;;4892434;29;20439;-81
2022/02/13 09:48:22;;;;;;;4.03;3.83;;;11.30;52.90;;;;;;4892959;29;20503;-81
2022/02/13 09:50:48;;;;;;;3.93;3.73;;;13.20;52.70;;;;;;4201565;29;10000834;-83
2022/02/13 09:53:16;;;;;;;4.20;4.10;;;11.60;51.20;;;;;;4909265;29;20851;-82
2022/02/13 09:55:43;;;;;;;4.40;4.07;;;13.10;50.40;;;;;;4884881;29;20532;-81
2022/02/13 09:58:09;;;;;;;4.60;4.20;;;12.30;55.20;;;;;;4898442;29;20496;-82
2022/02/13 10:01:02;;;;;;;5.03;4.70;;;12.40;47.20;;;;;;4909045;29;20580;-82
2022/02/13 10:03:29;;;;;;;4.13;3.93;;;12.60;44.40;;;;;;4898620;29;21159;-81
2022/02/13 10:06:02;;;;;;;3.97;3.70;;;12.80;44.60;;;;;;4904840;29;20452;-81
2022/02/13 10:08:34;;;;;;;4.00;3.87;;;12.70;43.80;;;;;;4897786;29;20428;-82
2022/02/13 10:11:14;;;;;;;4.00;3.80;;;12.60;43.30;;;;;;4905685;29;21386;-82
2022/02/13 10:13:58;;;;;;;3.73;3.53;;;13.10;42.90;;;;;;4888512;29;20495;-81
2022/02/13 10:16:37;;;;;;;2.80;2.70;;;15.40;45.70;;;;;;4901528;29;20509;-81
2022/02/13 10:19:25;;;;;;;5.40;4.63;;;12.90;42.10;;;;;;4894006;29;20442;-81
2022/02/13 10:21:53;;;;;;;11.33;10.40;;;12.50;45.40;;;;;;4881467;29;20444;-82
2022/02/13 10:24:31;;;;;;;4.30;4.20;;;14.20;46.90;;;;;;4891989;29;20554;-81
2022/02/13 10:26:56;;;;;;;3.67;3.47;;;12.30;43.30;;;;;;4881742;29;20476;-82
2022/02/13 10:29:29;;;;;;;4.17;3.87;;;13.00;45.30;;;;;;4901762;29;20855;-82
2022/02/13 10:32:21;;;;;;;4.00;3.80;;;11.80;44.20;;;;;;4885183;29;20299;-81
2022/02/13 10:35:06;;;;;;;3.13;3.03;;;12.10;44.60;;;;;;4890053;29;20435;-81
2022/02/13 10:37:56;;;;;;;3.77;3.67;;;12.50;45.80;;;;;;4887389;29;20492;-82
2022/02/13 10:40:27;;;;;;;3.40;3.30;;;12.80;43.50;;;;;;4899666;29;20443;-81
2022/02/13 10:43:04;;;;;;;3.83;3.73;;;13.30;42.80;;;;;;4882820;29;21069;-81
2022/02/13 10:45:32;;;;;;;4.30;4.10;;;12.60;44.00;;;;;;4893348;29;20817;-80
2022/02/13 10:48:04;;;;;;;4.30;4.10;;;14.20;44.90;;;;;;4910828;29;20517;-79
2022/02/13 10:50:31;;;;;;;2.83;2.73;;;13.20;44.00;;;;;;4908155;29;20455;-79
2022/02/13 10:52:59;;;;;;;3.93;3.73;;;14.80;44.90;;;;;;4909562;29;20456;-81
2022/02/13 10:55:32;;;;;;;3.60;3.50;;;12.10;44.00;;;;;;4885341;29;20435;-82
2022/02/13 10:57:59;;;;;;;4.50;4.13;;;11.90;44.90;;;;;;4901969;29;20854;-80
2022/02/13 11:00:27;;;;;;;4.40;4.20;;;11.50;44.60;;;;;;4903746;29;20433;-81
2022/02/13 11:02:54;;;;;;;3.60;3.40;;;12.20;45.10;;;;;;4892802;29;20567;-82
2022/02/13 11:05:28;;;;;;;4.17;4.07;;;12.20;44.90;;;;;;4905623;29;20428;-84
2022/02/13 11:07:58;;;;;;;4.27;4.07;;;15.00;46.90;;;;;;4905457;29;20455;-81
2022/02/13 11:10:36;;;;;;;4.43;4.23;;;13.20;45.30;;;;;;4901408;29;20969;-81
2022/02/13 11:13:03;;;;;;;4.47;4.20;;;12.30;45.40;;;;;;4913403;29;20939;-81
2022/02/13 11:15:31;;;;;;;3.83;3.63;;;12.80;45.70;;;;;;4886427;29;20456;-86
2022/02/13 11:18:08;;;;;;;3.30;3.10;;;12.70;45.40;;;;;;4910450;29;20463;-83
2022/02/13 11:21:02;;;;;;;6.73;3.93;;;12.40;44.90;;;;;;4910088;29;20444;-83
2022/02/13 11:23:42;;;;;;;4.00;3.73;;;12.50;45.40;;;;;;4895754;29;20841;-82
2022/02/13 11:26:38;;;;;;;3.90;3.70;;;12.70;44.50;;;;;;4873400;29;20460;-82
2022/02/13 11:29:06;;;;;;;4.60;4.20;;;13.40;56.30;;;;;;4875491;29;20442;-84
2022/02/13 11:31:53;;;;;;;3.40;3.30;;;13.30;43.80;;;;;;4899955;29;20844;-84
2022/02/13 11:34:19;;;;;;;3.53;3.33;;;14.00;41.70;;;;;;4906287;29;21061;-85
2022/02/13 11:36:51;;;;;;;3.53;3.43;;;13.50;42.60;;;;;;4892700;29;20483;-86
2022/02/13 11:39:39;;;;;;;2.73;2.73;;;13.60;43.10;;;;;;4918192;29;20212;-86
2022/02/13 11:42:09;;;;;;;4.47;4.30;;;13.80;40.90;;;;;;4917239;29;20543;-86
2022/02/13 11:44:39;;;;;;;4.10;3.80;;;13.10;42.50;;;;;;4919930;29;20436;-85
2022/02/13 11:47:10;;;;;;;3.80;3.50;;;13.20;43.30;;;;;;4897359;29;20463;-85
2022/02/13 11:50:03;;;;;;;3.90;3.70;;;13.30;41.50;;;;;;4911797;29;20426;-82
2022/02/13 11:52:30;;;;;;;4.00;3.80;;;12.90;42.30;;;;;;4910052;29;20448;-82
2022/02/13 11:54:57;;;;;;;4.93;4.10;;;12.20;44.20;;;;;;4893364;29;20440;-81
2022/02/13 11:57:32;;;;;;;3.97;3.70;;;12.40;44.70;;;;;;4910322;29;21040;-83
2022/02/13 11:59:57;;;;;;;3.57;3.47;;;12.40;44.60;;;;;;4910769;29;20953;-85
2022/02/13 12:02:35;;;;;;;3.90;3.80;;;12.40;44.80;;;;;;4911900;29;20492;-86
2022/02/13 12:05:07;;;;;;;3.43;3.37;;;12.20;45.10;;;;;;4913086;29;20855;-85
2022/02/13 12:07:57;;;;;;;3.93;3.73;;;12.20;46.30;;;;;;4890770;29;20460;-84
2022/02/13 12:10:33;;;;;;;4.77;4.57;;;13.90;47.70;;;;;;4889574;29;20447;-81
2022/02/13 12:13:13;;;;;;;4.00;3.90;;;11.90;47.10;;;;;;4907773;29;20804;-82
2022/02/13 12:15:54;;;;;;;3.43;3.33;;;11.40;45.30;;;;;;4907024;29;20445;-82
2022/02/13 12:18:20;;;;;;;5.53;5.20;;;11.60;45.10;;;;;;4902871;29;20420;-83
2022/02/13 12:20:47;;;;;;;3.77;3.57;;;12.20;46.90;;;;;;4888912;29;20558;-82
2022/02/13 12:23:15;;;;;;;4.30;4.00;;;12.40;46.10;;;;;;4891812;29;20442;-80
2022/02/13 12:25:47;;;;;;;3.47;3.37;;;14.40;46.60;;;;;;4885230;29;20598;-81
2022/02/13 12:28:19;;;;;;;5.03;4.13;;;13.30;42.90;;;;;;4903739;29;20798;-80
2022/02/13 12:30:50;;;;;;;4.40;4.20;;;13.60;44.00;;;;;;4886348;29;20491;-83
2022/02/13 12:33:18;;;;;;;5.03;3.13;;;12.30;44.40;;;;;;4878894;29;20445;-82
2022/02/13 12:35:45;;;;;;;3.53;3.43;;;16.10;46.50;;;;;;4883929;29;20467;-83
2022/02/13 12:38:12;;;;;;;3.50;3.40;;;14.10;44.20;;;;;;4900771;29;20788;-81
2022/02/13 12:40:43;;;;;;;3.90;3.60;;;13.80;43.40;;;;;;4877810;29;20476;-82
2022/02/13 12:43:15;;;;;;;3.33;3.07;;;14.20;41.90;;;;;;4897681;29;20433;-82
2022/02/13 12:45:41;;;;;;;3.40;3.30;;;13.90;40.60;;;;;;4901658;29;20448;-81
2022/02/13 12:48:14;;;;;;;3.73;3.10;;;14.00;44.00;;;;;;4904853;29;20973;-81
2022/02/13 12:50:45;;;;;;;3.63;3.53;;;13.50;42.90;;;;;;4907905;29;20539;-80
2022/02/13 12:53:13;;;;;;;3.20;3.10;;;13.60;41.10;;;;;;4888264;29;20514;-82
2022/02/13 12:55:41;;;;;;;4.40;4.00;;;14.60;44.80;;;;;;4907502;29;20471;-81
2022/02/13 12:58:07;;;;;;;6.57;3.10;;;13.00;44.00;;;;;;4907338;29;20455;-81
2022/02/13 13:00:42;;;;;;;3.47;3.27;;;13.10;44.30;;;;;;4891865;29;20444;-81
2022/02/13 13:03:10;;;;;;;3.83;3.53;;;13.70;44.60;;;;;;4908002;29;20190;-81
2022/02/13 13:05:38;;;;;;;3.93;3.70;;;13.70;44.10;;;;;;4888470;29;20449;-79
2022/02/13 13:08:27;;;;;;;3.20;3.17;;;13.70;42.30;;;;;;4901036;29;20840;-80
2022/02/13 13:11:01;;;;;;;3.67;3.40;;;14.00;41.70;;;;;;4878906;29;20445;-82
2022/02/13 13:13:27;;;;;;;3.97;3.73;;;15.10;49.70;;;;;;4909297;29;20791;-81
2022/02/13 13:16:04;;;;;;;4.20;3.90;;;14.50;47.70;;;;;;4908700;29;20483;-81